createdAt,value
2023-05-21T00:00:31.510Z,93.63
2023-05-21T00:02:59.464Z,93.45
2023-05-21T00:05:26.902Z,93.72
2023-05-21T00:07:55.047Z,93.95
2023-05-21T00:10:22.742Z,93.80
2023-05-21T00:12:49.972Z,94.39
2023-05-21T00:15:17.178Z,95.27
2023-05-21T00:17:46.199Z,95.34
2023-05-21T00:20:13.650Z,95.40
2023-05-21T00:22:42.509Z,96.26
2023-05-21T00:25:11.465Z,97.67
2023-05-21T00:27:38.892Z,98.48
2023-05-21T00:30:07.054Z,98.80
2023-05-21T00:32:34.738Z,99.72
2023-05-21T00:35:01.895Z,100.00
2023-05-21T00:37:34.452Z,100.00
2023-05-21T00:40:02.341Z,100.00
2023-05-21T00:42:30.784Z,100.00
2023-05-21T00:44:58.338Z,100.00
2023-05-21T00:47:29.729Z,100.00
2023-05-21T00:49:57.434Z,100.00
2023-05-21T00:52:27.070Z,100.00
2023-05-21T00:54:55.296Z,100.00
2023-05-21T00:57:25.351Z,100.00
2023-05-21T00:59:53.692Z,100.00
2023-05-21T01:02:24.354Z,100.00
2023-05-21T01:04:55.298Z,100.00
2023-05-21T01:07:23.430Z,100.00
2023-05-21T01:09:50.834Z,100.00
2023-05-21T01:12:18.932Z,100.00
2023-05-21T01:14:47.115Z,100.00
2023-05-21T01:17:15.719Z,100.00
2023-05-21T01:19:44.718Z,100.00
2023-05-21T01:22:14.356Z,100.00
2023-05-21T01:24:41.839Z,100.00
2023-05-21T01:27:10.646Z,100.00
2023-05-21T01:29:38.211Z,100.00
2023-05-21T01:32:14.532Z,100.00
2023-05-21T01:35:09.874Z,100.00
2023-05-21T01:37:46.246Z,100.00
2023-05-21T01:40:38.434Z,100.00
2023-05-21T01:43:06.686Z,100.00
2023-05-21T01:45:37.078Z,100.00
2023-05-21T01:48:06.267Z,100.00
2023-05-21T01:50:34.616Z,100.00
2023-05-21T01:53:03.841Z,100.00
2023-05-21T01:55:31.475Z,100.00
2023-05-21T01:58:01.984Z,100.00
2023-05-21T02:00:32.390Z,100.00
2023-05-21T02:03:00.043Z,100.00
2023-05-21T02:05:27.462Z,100.00
2023-05-21T02:07:55.028Z,100.00
2023-05-21T02:10:22.948Z,100.00
2023-05-21T02:12:50.260Z,100.00
2023-05-21T02:15:20.633Z,100.00
2023-05-21T02:17:48.412Z,100.00
2023-05-21T02:20:16.273Z,100.00
2023-05-21T02:22:45.588Z,100.00
2023-05-21T02:25:15.284Z,100.00
2023-05-21T02:27:43.453Z,100.00
2023-05-21T02:30:12.155Z,100.00
2023-05-21T02:32:42.861Z,100.00
2023-05-21T02:35:12.354Z,100.00
2023-05-21T02:37:40.763Z,100.00
2023-05-21T02:40:09.836Z,100.00
2023-05-21T02:42:39.768Z,100.00
2023-05-21T02:45:09.721Z,100.00
2023-05-21T02:47:38.726Z,100.00
2023-05-21T02:50:08.640Z,100.00
2023-05-21T02:52:37.195Z,100.00
2023-05-21T02:55:04.638Z,100.00
2023-05-21T02:57:31.871Z,100.00
2023-05-21T02:59:59.504Z,100.00
2023-05-21T03:02:27.242Z,100.00
2023-05-21T03:04:54.742Z,100.00
2023-05-21T03:07:22.558Z,100.00
2023-05-21T03:09:49.886Z,100.00
2023-05-21T03:12:17.303Z,100.00
2023-05-21T03:14:46.533Z,100.00
2023-05-21T03:17:15.142Z,100.00
2023-05-21T03:19:44.108Z,100.00
2023-05-21T03:22:11.746Z,100.00
2023-05-21T03:24:40.002Z,100.00
2023-05-21T03:27:07.665Z,100.00
2023-05-21T03:29:35.477Z,100.00
2023-05-21T03:32:03.322Z,99.41
2023-05-21T03:34:31.332Z,97.98
2023-05-21T03:36:59.274Z,98.37
2023-05-21T03:39:26.944Z,98.85
2023-05-21T03:41:55.111Z,100.00
2023-05-21T03:44:23.145Z,100.00
2023-05-21T03:46:50.952Z,100.00
2023-05-21T03:49:18.495Z,99.68
2023-05-21T03:51:46.254Z,98.51
2023-05-21T03:54:14.292Z,98.67
2023-05-21T03:56:41.679Z,99.73
2023-05-21T03:59:09.447Z,99.21
2023-05-21T04:01:36.849Z,99.96
2023-05-21T04:04:05.043Z,99.83
2023-05-21T04:06:32.686Z,98.72
2023-05-21T04:08:59.888Z,97.86
2023-05-21T04:11:27.361Z,99.20
2023-05-21T04:13:54.757Z,98.19
2023-05-21T04:16:22.602Z,97.54
2023-05-21T04:18:50.669Z,98.16
2023-05-21T04:21:17.905Z,97.70
2023-05-21T04:23:45.103Z,97.34
2023-05-21T04:26:16.341Z,96.00
2023-05-21T04:28:43.754Z,94.10
2023-05-21T04:31:13.115Z,92.74
2023-05-21T04:33:42.289Z,90.92
2023-05-21T04:36:12.611Z,90.74
2023-05-21T04:38:42.015Z,88.60
2023-05-21T04:41:11.009Z,88.19
2023-05-21T04:43:38.427Z,87.99
2023-05-21T04:46:06.147Z,87.83
2023-05-21T04:48:34.261Z,85.66
2023-05-21T04:51:01.736Z,85.20
2023-05-21T04:53:29.286Z,84.55
2023-05-21T04:55:59.463Z,84.39
2023-05-21T04:58:28.008Z,84.32
2023-05-21T05:00:55.967Z,82.70
2023-05-21T05:03:23.712Z,80.81
2023-05-21T05:05:51.736Z,81.04
2023-05-21T05:08:20.388Z,80.72
2023-05-21T05:10:48.042Z,77.96
2023-05-21T05:13:16.158Z,70.43
2023-05-21T05:15:43.837Z,60.09
2023-05-21T05:18:12.077Z,55.82
2023-05-21T05:20:40.835Z,53.11
2023-05-21T05:23:08.018Z,51.72
2023-05-21T05:25:35.882Z,47.57
2023-05-21T05:28:03.367Z,47.11
2023-05-21T05:30:30.672Z,45.15
2023-05-21T05:33:01.595Z,45.65
2023-05-21T05:35:28.937Z,45.98
2023-05-21T05:37:57.071Z,44.84
2023-05-21T05:40:24.894Z,42.80
2023-05-21T05:42:52.909Z,39.82
2023-05-21T05:45:20.799Z,44.99
2023-05-21T05:47:48.350Z,42.27
2023-05-21T05:50:15.861Z,43.02
2023-05-21T05:52:43.111Z,41.49
2023-05-21T05:55:12.799Z,40.67
2023-05-21T05:57:40.085Z,41.68
2023-05-21T06:00:10.653Z,41.50
2023-05-21T06:02:39.577Z,41.10
2023-05-21T06:05:10.134Z,39.65
2023-05-21T06:07:38.741Z,40.03
2023-05-21T06:10:07.206Z,41.86
2023-05-21T06:12:34.918Z,41.22
2023-05-21T06:15:02.373Z,42.43
2023-05-21T06:17:30.170Z,36.80
2023-05-21T06:19:57.786Z,38.85
2023-05-21T06:22:26.976Z,37.78
2023-05-21T06:24:55.333Z,40.12
2023-05-21T06:27:22.955Z,40.94
2023-05-21T06:29:50.355Z,40.44
2023-05-21T06:32:18.441Z,40.75
2023-05-21T06:34:46.245Z,39.19
2023-05-21T06:37:13.581Z,39.35
2023-05-21T06:39:41.037Z,38.70
2023-05-21T06:42:08.755Z,35.76
2023-05-21T06:44:39.005Z,38.65
2023-05-21T06:47:07.636Z,41.51
2023-05-21T06:49:35.729Z,36.61
2023-05-21T06:52:03.407Z,37.15
2023-05-21T06:54:30.915Z,38.81
2023-05-21T06:56:58.544Z,38.55
2023-05-21T06:59:25.719Z,37.07
2023-05-21T07:01:54.098Z,40.98
2023-05-21T07:04:21.520Z,39.67
2023-05-21T07:06:49.912Z,40.76
2023-05-21T07:09:18.387Z,39.47
2023-05-21T07:11:46.447Z,40.23
2023-05-21T07:14:15.506Z,39.90
2023-05-21T07:16:42.724Z,40.41
2023-05-21T07:19:10.638Z,40.40
2023-05-21T07:21:37.976Z,41.30
2023-05-21T07:24:06.421Z,41.37
2023-05-21T07:26:37.659Z,41.27
2023-05-21T07:29:04.935Z,41.19
2023-05-21T07:31:32.334Z,41.19
2023-05-21T07:34:00.655Z,41.77
2023-05-21T07:36:28.612Z,41.02
2023-05-21T07:38:56.119Z,42.44
2023-05-21T07:41:23.692Z,42.90
2023-05-21T07:43:51.514Z,43.54
2023-05-21T07:46:18.837Z,44.63
2023-05-21T07:48:48.472Z,43.53
2023-05-21T07:51:16.626Z,43.78
2023-05-21T07:53:44.327Z,43.66
2023-05-21T07:56:12.525Z,44.68
2023-05-21T07:58:40.766Z,45.40
2023-05-21T08:01:08.494Z,45.04
2023-05-21T08:03:36.285Z,40.27
2023-05-21T08:06:03.813Z,44.47
2023-05-21T08:08:30.996Z,44.30
2023-05-21T08:10:59.086Z,44.97
2023-05-21T08:13:26.731Z,44.99
2023-05-21T08:15:54.355Z,44.23
2023-05-21T08:18:24.050Z,44.14
2023-05-21T08:20:52.979Z,45.19
2023-05-21T08:23:20.749Z,43.60
2023-05-21T08:25:48.902Z,45.31
2023-05-21T08:28:16.307Z,45.68
2023-05-21T08:30:54.187Z,46.86
2023-05-21T08:33:29.390Z,44.79
2023-05-21T08:35:57.002Z,45.85
2023-05-21T08:38:25.087Z,45.28
2023-05-21T08:40:55.093Z,45.18
2023-05-21T08:43:22.719Z,46.69
2023-05-21T08:45:58.903Z,46.36
2023-05-21T08:48:26.525Z,44.75
2023-05-21T08:50:55.180Z,43.97
2023-05-21T08:53:29.066Z,42.60
2023-05-21T08:55:57.627Z,45.02
2023-05-21T08:58:26.328Z,43.87
2023-05-21T09:00:56.316Z,45.92
2023-05-21T09:03:26.894Z,45.11
2023-05-21T09:05:55.499Z,44.55
2023-05-21T09:08:27.923Z,44.94
2023-05-21T09:10:56.411Z,43.85
2023-05-21T09:13:25.557Z,42.48
2023-05-21T09:15:53.273Z,43.06
2023-05-21T09:18:21.665Z,42.08
2023-05-21T09:20:51.012Z,41.16
2023-05-21T09:23:19.514Z,41.39
2023-05-21T09:25:48.989Z,42.78
2023-05-21T09:28:19.435Z,42.06
2023-05-21T09:30:47.454Z,40.87
2023-05-21T09:33:26.130Z,41.92
2023-05-21T09:35:53.801Z,41.52
2023-05-21T09:38:23.768Z,40.88
2023-05-21T09:40:51.651Z,39.81
2023-05-21T09:43:21.840Z,39.77
2023-05-21T09:45:57.878Z,42.21
2023-05-21T09:48:44.700Z,41.80
2023-05-21T09:51:19.719Z,41.92
2023-05-21T09:53:54.261Z,42.84
2023-05-21T09:56:27.512Z,40.38
2023-05-21T09:59:00.648Z,39.90
2023-05-21T10:01:28.937Z,42.92
2023-05-21T10:04:00.121Z,44.08
2023-05-21T10:06:29.688Z,43.40
2023-05-21T10:08:57.602Z,44.87
2023-05-21T10:11:31.302Z,44.12
2023-05-21T10:17:30.766Z,44.27
2023-05-21T10:20:00.231Z,42.67
2023-05-21T10:22:28.131Z,43.28
2023-05-21T10:24:55.738Z,42.86
2023-05-21T10:27:23.597Z,42.67
2023-05-21T10:29:51.433Z,42.66
2023-05-21T10:32:21.259Z,43.02
2023-05-21T10:34:49.723Z,42.71
2023-05-21T10:37:37.752Z,42.50
2023-05-21T10:40:06.206Z,40.61
2023-05-21T10:42:34.753Z,40.96
2023-05-21T10:45:27.389Z,41.65
2023-05-21T10:48:21.925Z,41.54
2023-05-21T10:51:36.876Z,42.14
2023-05-21T10:54:46.999Z,42.10
2023-05-21T10:57:24.497Z,41.29
2023-05-21T10:59:58.418Z,42.62
2023-05-21T11:02:27.205Z,42.11
2023-05-21T11:04:59.653Z,42.08
2023-05-21T11:07:58.261Z,41.45
2023-05-21T11:10:35.604Z,41.75
2023-05-21T11:13:15.572Z,42.86
2023-05-21T11:15:58.740Z,41.71
2023-05-21T11:18:38.558Z,41.81
2023-05-21T11:21:17.313Z,42.00
2023-05-21T11:23:51.250Z,43.39
2023-05-21T11:26:25.450Z,42.25
2023-05-21T11:29:05.089Z,42.49
2023-05-21T11:31:40.384Z,42.26
2023-05-21T11:34:28.234Z,42.29
2023-05-21T11:37:27.911Z,40.66
2023-05-21T11:39:56.029Z,40.63
2023-05-21T11:42:28.277Z,40.73
2023-05-21T11:44:58.552Z,41.47
2023-05-21T11:47:26.958Z,42.43
2023-05-21T11:49:54.998Z,40.92
2023-05-21T11:52:22.688Z,41.06
2023-05-21T11:54:55.491Z,41.66
2023-05-21T11:57:24.232Z,42.96
2023-05-21T11:59:51.930Z,42.64
2023-05-21T12:02:21.178Z,42.36
2023-05-21T12:04:50.384Z,41.71
2023-05-21T12:07:19.948Z,42.19
2023-05-21T12:09:48.778Z,41.91
2023-05-21T12:12:25.627Z,42.58
2023-05-21T12:14:55.202Z,42.77
2023-05-21T12:17:23.529Z,42.80
2023-05-21T12:19:55.484Z,42.42
2023-05-21T12:22:24.699Z,42.24
2023-05-21T12:24:53.926Z,41.66
2023-05-21T12:27:21.995Z,40.62
2023-05-21T12:29:52.000Z,40.93
2023-05-21T12:32:21.104Z,41.35
2023-05-21T12:34:56.430Z,40.55
2023-05-21T12:37:25.897Z,40.72
2023-05-21T12:39:58.080Z,41.63
2023-05-21T12:42:27.270Z,42.02
2023-05-21T12:44:57.909Z,39.21
2023-05-21T12:47:31.106Z,39.51
2023-05-21T12:50:02.141Z,39.75
2023-05-21T12:52:31.139Z,40.55
2023-05-21T12:54:59.349Z,40.74
2023-05-21T12:57:28.425Z,41.14
2023-05-21T13:00:01.980Z,40.19
2023-05-21T13:02:34.626Z,40.55
2023-05-21T13:05:23.989Z,39.94
2023-05-21T13:07:51.832Z,39.93
2023-05-21T13:10:19.538Z,39.83
2023-05-21T13:12:50.683Z,38.56
2023-05-21T13:15:20.348Z,39.15
2023-05-21T13:17:50.071Z,39.69
2023-05-21T13:20:34.548Z,38.29
2023-05-21T13:23:04.652Z,39.61
2023-05-21T13:25:33.558Z,39.98
2023-05-21T13:28:04.729Z,39.44
2023-05-21T13:30:33.453Z,40.52
2023-05-21T13:33:01.451Z,40.43
2023-05-21T13:35:30.546Z,40.20
2023-05-21T13:37:57.910Z,40.64
2023-05-21T13:40:25.488Z,39.81
2023-05-21T13:42:53.290Z,38.10
2023-05-21T13:45:21.527Z,38.06
2023-05-21T13:47:49.381Z,37.79
2023-05-21T13:50:17.363Z,37.69
2023-05-21T13:52:45.105Z,39.01
2023-05-21T13:55:12.816Z,38.05
2023-05-21T13:57:40.806Z,38.45
2023-05-21T14:00:14.326Z,38.09
2023-05-21T14:02:43.055Z,38.59
2023-05-21T14:05:12.463Z,37.40
2023-05-21T14:07:40.211Z,38.20
2023-05-21T14:10:08.812Z,38.89
2023-05-21T14:12:36.691Z,38.32
2023-05-21T14:15:04.290Z,38.87
2023-05-21T14:17:33.527Z,38.34
2023-05-21T14:20:00.822Z,38.27
2023-05-21T14:22:28.257Z,39.46
2023-05-21T14:24:56.281Z,38.36
2023-05-21T14:27:23.554Z,38.22
2023-05-21T14:29:51.059Z,37.24
2023-05-21T14:32:19.425Z,37.25
2023-05-21T14:34:46.951Z,37.93
2023-05-21T14:37:14.157Z,37.95
2023-05-21T14:39:41.989Z,38.08
2023-05-21T14:42:09.277Z,38.01
2023-05-21T14:44:36.799Z,38.19
2023-05-21T14:47:04.724Z,37.90
2023-05-21T14:49:32.396Z,38.39
2023-05-21T14:51:59.782Z,39.41
2023-05-21T14:54:27.478Z,37.61
2023-05-21T14:56:54.918Z,38.62
2023-05-21T15:02:56.512Z,38.55
2023-05-21T15:05:25.912Z,39.31
2023-05-21T15:07:53.237Z,38.95
2023-05-21T15:10:20.603Z,38.96
2023-05-21T15:12:48.205Z,39.21
2023-05-21T15:15:17.153Z,39.54
2023-05-21T15:17:44.781Z,39.14
2023-05-21T15:20:12.558Z,39.46
2023-05-21T15:22:40.113Z,39.37
2023-05-21T15:25:08.126Z,38.83
2023-05-21T15:27:35.751Z,38.96
2023-05-21T15:30:04.131Z,39.08
2023-05-21T15:32:31.652Z,39.58
2023-05-21T15:35:04.239Z,38.71
2023-05-21T15:37:33.095Z,39.15
2023-05-21T15:40:01.077Z,38.89
2023-05-21T15:42:31.422Z,39.45
2023-05-21T15:44:59.011Z,39.19
2023-05-21T15:47:30.013Z,38.99
2023-05-21T15:49:58.964Z,39.66
2023-05-21T15:52:26.736Z,39.42
2023-05-21T15:54:54.104Z,39.74
2023-05-21T15:57:21.356Z,39.11
2023-05-21T15:59:50.474Z,39.72
2023-05-21T16:02:18.129Z,40.29
2023-05-21T16:04:45.927Z,40.69
2023-05-21T16:07:13.512Z,40.45
2023-05-21T16:09:41.085Z,40.52
2023-05-21T16:12:08.787Z,40.88
2023-05-21T16:14:36.017Z,39.27
2023-05-21T16:17:03.656Z,40.22
2023-05-21T16:19:31.970Z,39.23
2023-05-21T16:22:00.959Z,39.29
2023-05-21T16:24:28.183Z,39.45
2023-05-21T16:30:26.121Z,40.10
2023-05-21T16:32:53.949Z,39.67
2023-05-21T16:35:24.062Z,39.81
2023-05-21T16:37:51.226Z,40.61
2023-05-21T16:40:19.135Z,40.16
2023-05-21T16:42:46.292Z,40.84
2023-05-21T16:45:20.645Z,40.50
2023-05-21T16:47:49.906Z,40.67
2023-05-21T16:50:19.091Z,40.15
2023-05-21T16:52:46.410Z,40.69
2023-05-21T16:55:14.244Z,41.19
2023-05-21T16:57:41.538Z,41.34
2023-05-21T17:00:09.187Z,41.04
2023-05-21T17:06:20.044Z,41.50
2023-05-21T17:08:47.620Z,42.41
2023-05-21T17:14:45.125Z,43.35
2023-05-21T17:17:12.613Z,43.02
2023-05-21T17:19:39.863Z,42.60
2023-05-21T17:22:07.089Z,42.90
2023-05-21T17:24:34.651Z,43.51
2023-05-21T17:27:01.958Z,43.30
2023-05-21T17:29:29.235Z,43.43
2023-05-21T17:31:56.948Z,43.71
2023-05-21T17:34:29.546Z,43.60
2023-05-21T17:37:00.030Z,44.37
2023-05-21T17:39:27.705Z,44.54
2023-05-21T17:41:55.850Z,44.82
2023-05-21T17:44:25.181Z,44.71
2023-05-21T17:46:53.783Z,44.93
2023-05-21T17:49:21.483Z,45.83
2023-05-21T17:51:49.395Z,45.66
2023-05-21T17:54:17.042Z,46.41
2023-05-21T17:56:46.227Z,46.06
2023-05-21T17:59:16.361Z,46.64
2023-05-21T18:01:46.028Z,47.05
2023-05-21T18:04:15.678Z,47.26
2023-05-21T18:06:43.536Z,47.71
2023-05-21T18:09:14.295Z,47.82
2023-05-21T18:11:45.132Z,47.62
2023-05-21T18:14:12.755Z,47.74
2023-05-21T18:16:40.937Z,49.07
2023-05-21T18:19:08.777Z,50.14
2023-05-21T18:21:37.535Z,49.80
2023-05-21T18:24:06.477Z,49.32
2023-05-21T18:26:34.133Z,50.42
2023-05-21T18:29:04.377Z,51.14
2023-05-21T18:31:31.693Z,51.48
2023-05-21T18:33:59.305Z,51.90
2023-05-21T18:39:56.948Z,53.59
2023-05-21T18:42:26.366Z,56.12
2023-05-21T18:44:55.931Z,57.66
2023-05-21T18:47:24.756Z,58.39
2023-05-21T18:49:52.425Z,59.18
2023-05-21T18:52:19.776Z,60.19
2023-05-21T18:54:47.412Z,61.34
2023-05-21T18:57:15.107Z,62.03
2023-05-21T18:59:42.398Z,62.64
2023-05-21T19:02:09.927Z,63.46
2023-05-21T19:04:37.683Z,63.72
2023-05-21T19:07:05.807Z,65.48
2023-05-21T19:09:33.118Z,65.91
2023-05-21T19:12:01.172Z,67.01
2023-05-21T19:14:29.247Z,67.54
2023-05-21T19:16:56.589Z,67.67
2023-05-21T19:19:24.633Z,68.68
2023-05-21T19:21:53.308Z,68.81
2023-05-21T19:24:20.877Z,69.37
2023-05-21T19:26:48.500Z,70.75
2023-05-21T19:29:16.130Z,71.70
2023-05-21T19:35:22.426Z,73.47
2023-05-21T19:37:50.031Z,74.31
2023-05-21T19:40:17.801Z,75.60
2023-05-21T19:42:45.167Z,75.76
2023-05-21T19:45:13.466Z,76.94
2023-05-21T19:47:41.162Z,77.12
2023-05-21T19:50:10.170Z,76.84
2023-05-21T19:53:03.989Z,78.43
2023-05-21T19:55:35.327Z,79.02
2023-05-21T20:01:19.764Z,80.71
2023-05-21T20:07:17.908Z,82.26
2023-05-21T20:13:15.260Z,84.20
2023-05-21T20:15:51.873Z,81.67
2023-05-21T20:18:22.360Z,81.21
2023-05-21T20:24:20.023Z,82.14
2023-05-21T20:26:47.442Z,82.47
2023-05-21T20:29:15.349Z,82.69
2023-05-21T20:31:42.612Z,83.74
2023-05-21T20:34:12.381Z,83.95
2023-05-21T20:36:43.597Z,86.22
2023-05-21T20:39:12.152Z,85.84
2023-05-21T20:41:39.663Z,87.36
2023-05-21T20:44:07.062Z,87.75
2023-05-21T20:46:38.440Z,87.31
2023-05-21T20:49:06.136Z,88.64
2023-05-21T20:51:34.164Z,87.75
2023-05-21T20:54:01.628Z,86.96
2023-05-21T20:56:40.790Z,85.81
2023-05-21T20:59:11.161Z,86.63
2023-05-21T21:01:40.737Z,88.05
2023-05-21T21:04:09.032Z,91.33
2023-05-21T21:06:38.570Z,92.03
2023-05-21T21:09:05.966Z,93.14
2023-05-21T21:11:33.709Z,93.25
2023-05-21T21:14:02.718Z,94.83
2023-05-21T21:16:30.130Z,96.12
2023-05-21T21:18:58.025Z,95.46
2023-05-21T21:21:25.434Z,97.38
2023-05-21T21:23:52.593Z,96.46
2023-05-21T21:26:20.171Z,97.08
2023-05-21T21:28:47.527Z,97.73
2023-05-21T21:31:17.589Z,97.10
2023-05-21T21:33:45.046Z,96.38
2023-05-21T21:36:13.085Z,97.94
2023-05-21T21:38:40.336Z,99.26
2023-05-21T21:41:08.191Z,99.78
2023-05-21T21:43:35.702Z,100.00
2023-05-21T21:46:03.253Z,100.00
2023-05-21T21:48:30.896Z,100.00
2023-05-21T21:50:58.404Z,100.00
2023-05-21T21:53:25.702Z,100.00
2023-05-21T21:55:53.474Z,100.00
2023-05-21T21:58:20.830Z,100.00
2023-05-21T22:04:18.440Z,100.00
2023-05-21T22:06:46.814Z,100.00
2023-05-21T22:09:14.142Z,100.00
2023-05-21T22:11:41.543Z,98.06
2023-05-21T22:14:09.062Z,93.35
2023-05-21T22:16:36.691Z,90.03
2023-05-21T22:19:03.974Z,89.66
2023-05-21T22:21:33.185Z,89.40
2023-05-21T22:24:00.625Z,91.84
2023-05-21T22:26:27.887Z,95.21
2023-05-21T22:28:55.731Z,94.61
2023-05-21T22:31:23.124Z,95.00
2023-05-21T22:33:50.514Z,94.44
2023-05-21T22:36:18.296Z,95.82
2023-05-21T22:38:45.719Z,96.84
2023-05-21T22:41:13.138Z,98.45
2023-05-21T22:43:41.058Z,98.36
2023-05-21T22:46:08.414Z,97.93
2023-05-21T22:48:37.290Z,96.96
2023-05-21T22:51:05.658Z,98.36
2023-05-21T22:53:33.526Z,98.42
2023-05-21T22:56:01.185Z,98.91
2023-05-21T22:58:28.692Z,96.34
2023-05-21T23:00:56.028Z,94.96
2023-05-21T23:03:23.404Z,94.10
2023-05-21T23:05:51.116Z,94.49
2023-05-21T23:08:18.482Z,95.28
2023-05-21T23:10:45.811Z,94.02
2023-05-21T23:13:13.386Z,94.36
2023-05-21T23:15:43.810Z,94.78
2023-05-21T23:18:11.808Z,94.80
2023-05-21T23:20:41.050Z,93.54
2023-05-21T23:23:09.825Z,92.68
2023-05-21T23:25:37.463Z,91.38
2023-05-21T23:28:05.115Z,90.80
2023-05-21T23:30:32.620Z,87.61
2023-05-21T23:33:00.644Z,87.63
2023-05-21T23:35:28.291Z,87.64
2023-05-21T23:37:55.769Z,87.29
2023-05-21T23:40:23.096Z,86.42
2023-05-21T23:42:50.722Z,85.20
2023-05-21T23:45:18.309Z,86.72
2023-05-21T23:47:45.708Z,88.07
2023-05-21T23:50:13.283Z,87.22
2023-05-21T23:52:41.656Z,87.54
2023-05-21T23:55:11.604Z,88.90
2023-05-21T23:57:39.037Z,89.10
